Time;durP1;ratioP1;P1;durP2;ratioP2;P2;SDS_P1;SDS_P2;PMS_P1;PMS_P2;Temp;Humidity;BMP_temperature;BMP_pressure;BME280_temperature;BME280_humidity;BME280_pressure;Samples;Min_cycle;Max_cycle;Signal;HPM_P1;HPM_P2
2022/07/17 00:01:11;;;;;;;;;3.00;3.00;;;;;23.34;36.71;101803.25;5058530;28;45464;-63
2022/07/17 00:03:37;;;;;;;;;4.00;4.00;;;;;23.17;36.49;101784.91;5058570;28;46387;-64
2022/07/17 00:06:02;;;;;;;;;4.25;4.25;;;;;23.28;36.81;101794.78;5058475;28;45306;-63
2022/07/17 00:08:27;;;;;;;;;3.00;3.00;;;;;23.29;36.84;101796.50;5058873;28;45580;-64
2022/07/17 00:10:53;;;;;;;;;2.33;2.33;;;;;23.30;36.87;101801.78;5058414;28;45295;-65
2022/07/17 00:13:18;;;;;;;;;3.00;3.00;;;;;23.27;37.22;101799.34;5056605;28;45509;-63
2022/07/17 00:15:44;;;;;;;;;4.25;4.25;;;;;23.24;36.88;101805.94;5058282;28;45311;-63
2022/07/17 00:18:09;;;;;;;;;4.00;2.75;;;;;23.19;36.88;101802.78;5058619;28;45421;-65
2022/07/17 00:20:35;;;;;;;;;3.33;3.00;;;;;23.11;37.28;101799.88;5058538;28;45368;-64
2022/07/17 00:23:01;;;;;;;;;3.33;3.33;;;;;23.06;36.88;101801.31;5056627;28;46896;-64
2022/07/17 00:25:26;;;;;;;;;4.00;4.00;;;;;22.87;37.64;101788.50;5058116;28;45208;-63
2022/07/17 00:27:52;;;;;;;;;3.25;3.25;;;;;22.94;37.75;101804.13;5057847;28;45217;-64
2022/07/17 00:30:18;;;;;;;;;5.00;4.00;;;;;22.90;37.51;101809.94;5056989;28;45337;-64
2022/07/17 00:32:44;;;;;;;;;4.67;4.67;;;;;22.89;37.53;101814.50;5057751;28;45500;-64
2022/07/17 00:35:11;;;;;;;;;2.00;2.00;;;;;22.78;37.86;101803.72;5056925;28;45315;-63
2022/07/17 00:37:44;;;;;;;;;4.00;2.00;;;;;22.80;37.52;101804.47;5058055;28;45427;-64
2022/07/17 00:40:18;;;;;;;;;3.00;3.00;;;;;22.79;38.35;101799.19;5058379;28;45306;-64
2022/07/17 00:42:43;;;;;;;;;2.67;2.67;;;;;22.74;38.18;101807.69;5057580;28;45460;-64
2022/07/17 00:45:10;;;;;;;;;3.00;3.00;;;;;22.70;38.38;101800.84;5058096;28;45355;-64
2022/07/17 00:47:55;;;;;;;;;3.67;3.67;;;;;22.70;38.45;101792.69;5056634;28;45465;-63
2022/07/17 00:50:28;;;;;;;;;4.00;3.00;;;;;22.71;38.30;101798.97;5058078;28;45448;-64
2022/07/17 00:52:53;;;;;;;;;2.67;2.67;;;;;22.61;38.77;101796.22;5056243;28;47541;-63
2022/07/17 00:55:19;;;;;;;;;3.00;3.00;;;;;22.62;38.35;101808.78;5057548;28;45295;-63
2022/07/17 00:57:49;;;;;;;;;7.00;4.00;;;;;22.59;38.75;101803.63;5057909;28;45332;-64
2022/07/17 01:00:16;;;;;;;;;4.33;3.00;;;;;22.61;38.59;101807.06;5056650;28;45462;-64
2022/07/17 01:02:47;;;;;;;;;3.00;3.00;;;;;22.58;38.73;101805.47;5056473;28;46947;-64
2022/07/17 01:05:13;;;;;;;;;4.00;2.50;;;;;22.57;38.21;101811.91;5057365;28;45418;-63
2022/07/17 01:07:38;;;;;;;;;4.00;4.00;;;;;22.42;38.57;101796.97;5057841;28;45422;-64
2022/07/17 01:10:04;;;;;;;;;2.33;2.33;;;;;22.46;39.01;101813.81;5056633;28;45167;-63
2022/07/17 01:12:30;;;;;;;;;4.50;2.00;;;;;22.39;38.76;101808.06;5055954;28;48496;-62
2022/07/17 01:14:57;;;;;;;;;8.00;7.00;;;;;22.32;38.99;101799.63;5057193;28;45283;-63
2022/07/17 01:17:23;;;;;;;;;4.00;4.00;;;;;22.36;38.72;101806.47;5056363;28;45374;-64
2022/07/17 01:19:49;;;;;;;;;5.00;4.00;;;;;22.32;38.88;101809.59;5057725;28;45303;-62
2022/07/17 01:22:14;;;;;;;;;5.33;3.00;;;;;22.26;38.99;101813.69;5055558;28;45428;-63
2022/07/17 01:24:40;;;;;;;;;4.00;3.00;;;;;22.25;39.20;101806.56;5056050;28;45347;-63
2022/07/17 01:27:06;;;;;;;;;4.00;4.00;;;;;22.16;39.13;101796.53;5057442;28;45353;-63
2022/07/17 01:29:32;;;;;;;;;3.00;3.00;;;;;22.15;39.29;101800.22;5057237;28;45572;-63
2022/07/17 01:31:57;;;;;;;;;6.67;5.00;;;;;22.11;39.44;101801.47;5056886;28;46211;-63
2022/07/17 01:34:23;;;;;;;;;4.33;4.33;;;;;22.12;39.64;101805.03;5054848;28;45409;-63
2022/07/17 01:36:48;;;;;;;;;3.00;3.00;;;;;22.05;40.05;101801.97;5056752;28;45220;-62
2022/07/17 01:39:14;;;;;;;;;5.33;4.00;;;;;22.03;39.71;101804.81;5057488;28;45546;-64
2022/07/17 01:41:40;;;;;;;;;4.00;4.00;;;;;21.92;39.92;101793.16;5056919;28;46267;-64
2022/07/17 01:44:07;;;;;;;;;3.33;3.33;;;;;21.64;40.19;101759.44;5056638;28;45349;-64
2022/07/17 01:46:32;;;;;;;;;5.00;4.00;;;;;21.83;40.05;101799.34;5056616;28;45439;-63
2022/07/17 01:49:00;;;;;;;;;6.00;4.00;;;;;21.82;40.03;101800.34;5057235;28;45271;-63
2022/07/17 01:51:26;;;;;;;;;3.00;3.00;;;;;21.77;40.33;101796.19;5056836;28;45412;-63
2022/07/17 01:53:52;;;;;;;;;3.00;3.00;;;;;21.75;40.23;101792.75;5056625;28;45365;-62
2022/07/17 01:56:17;;;;;;;;;3.67;3.67;;;;;21.73;40.18;101785.72;5056713;28;45445;-63
2022/07/17 01:58:42;;;;;;;;;4.00;4.00;;;;;21.62;40.65;101775.81;5057247;28;45485;-63
2022/07/17 02:01:08;;;;;;;;;4.67;4.67;;;;;21.69;40.24;101792.38;5055104;28;46617;-63
2022/07/17 02:03:33;;;;;;;;;6.33;5.00;;;;;21.67;40.80;101787.09;5056595;28;45342;-64
2022/07/17 02:05:59;;;;;;;;;7.00;4.33;;;;;21.59;40.82;101776.06;5057030;28;45234;-64
2022/07/17 02:08:24;;;;;;;;;8.00;8.00;;;;;21.56;40.55;101779.03;5056743;28;45253;-63
2022/07/17 02:10:49;;;;;;;;;6.33;6.33;;;;;21.55;40.86;101779.16;5056290;28;45418;-62
2022/07/17 02:13:15;;;;;;;;;5.67;5.00;;;;;21.50;40.89;101782.25;5056617;28;45378;-62
2022/07/17 02:15:40;;;;;;;;;7.33;6.00;;;;;21.46;40.82;101780.78;5055217;28;45325;-64
2022/07/17 02:18:06;;;;;;;;;8.00;8.00;;;;;21.41;40.85;101772.19;5055331;28;45250;-64
2022/07/17 02:20:31;;;;;;;;;7.00;5.67;;;;;21.41;40.79;101777.59;5055853;28;45340;-64
2022/07/17 02:22:57;;;;;;;;;5.00;5.00;;;;;21.37;40.62;101770.72;5056263;28;45356;-64
2022/07/17 02:25:22;;;;;;;;;5.67;4.00;;;;;21.38;41.02;101778.72;5056425;28;45240;-63
2022/07/17 02:27:47;;;;;;;;;5.00;5.00;;;;;21.37;41.12;101785.13;5055101;28;45444;-63
2022/07/17 02:30:16;;;;;;;;;5.00;4.00;;;;;21.33;41.08;101769.25;5056518;28;45482;-63
2022/07/17 02:32:43;;;;;;;;;2.00;2.00;;;;;21.33;41.43;101772.81;5056195;28;45283;-64
2022/07/17 02:35:09;;;;;;;;;5.00;4.00;;;;;21.30;41.19;101775.78;5054604;28;45465;-64
2022/07/17 02:37:35;;;;;;;;;6.00;3.33;;;;;21.26;41.51;101770.75;5055021;28;45370;-64
2022/07/17 02:40:01;;;;;;;;;4.00;4.00;;;;;21.21;41.47;101771.94;5053922;28;46932;-64
2022/07/17 02:42:28;;;;;;;;;5.33;4.00;;;;;21.21;41.33;101777.34;5055626;28;45552;-64
2022/07/17 02:44:55;;;;;;;;;3.33;3.33;;;;;21.18;41.35;101771.34;5056134;28;45446;-66
2022/07/17 02:47:25;;;;;;;;;4.00;3.00;;;;;21.10;41.63;101771.13;5058639;28;45457;-64
2022/07/17 02:49:51;;;;;;;;;6.00;5.00;;;;;21.11;41.91;101775.53;5058513;28;48221;-64
2022/07/17 02:52:17;;;;;;;;;5.00;5.00;;;;;21.13;41.76;101771.72;5059834;28;45353;-64
2022/07/17 02:54:42;;;;;;;;;4.00;4.00;;;;;21.07;41.97;101765.94;5059599;28;45421;-62
2022/07/17 02:57:08;;;;;;;;;2.67;2.67;;;;;20.99;42.13;101761.19;5059804;28;45196;-63
2022/07/17 02:59:34;;;;;;;;;4.00;4.00;;;;;21.02;41.88;101771.75;5059293;28;45417;-63
2022/07/17 03:01:59;;;;;;;;;5.00;3.00;;;;;20.93;42.18;101767.06;5059475;28;45896;-63
2022/07/17 03:04:24;;;;;;;;;3.67;3.67;;;;;20.92;42.05;101760.81;5059310;28;45951;-62
2022/07/17 03:06:50;;;;;;;;;3.67;3.33;;;;;21.03;42.19;101768.03;5059987;28;45588;-62
2022/07/17 03:09:15;;;;;;;;;5.67;3.00;;;;;20.99;42.23;101766.59;5059598;28;46699;-63
2022/07/17 03:11:41;;;;;;;;;2.00;2.00;;;;;21.00;41.81;101767.44;5059609;28;45418;-63
2022/07/17 03:14:06;;;;;;;;;3.67;3.67;;;;;20.91;41.89;101761.78;5059723;28;45453;-65
2022/07/17 03:16:31;;;;;;;;;5.00;4.00;;;;;20.99;42.28;101772.00;5059768;28;45551;-63
2022/07/17 03:18:57;;;;;;;;;5.00;4.00;;;;;20.98;41.98;101766.72;5057535;28;47807;-63
2022/07/17 03:21:22;;;;;;;;;4.67;3.00;;;;;20.99;42.24;101776.53;5059121;28;45429;-63
2022/07/17 03:23:47;;;;;;;;;3.67;3.67;;;;;20.95;41.97;101765.09;5059666;28;45550;-64
2022/07/17 03:26:13;;;;;;;;;4.00;3.00;;;;;20.85;42.09;101765.00;5059438;28;45314;-64
2022/07/17 03:28:38;;;;;;;;;3.00;3.00;;;;;20.90;42.31;101772.72;5058924;28;45482;-66
2022/07/17 03:31:04;;;;;;;;;5.33;3.67;;;;;20.94;42.26;101779.59;5058784;28;45313;-64
2022/07/17 03:33:29;;;;;;;;;3.00;3.00;;;;;20.94;42.14;101779.59;5058837;28;45364;-63
2022/07/17 03:35:56;;;;;;;;;5.00;4.00;;;;;20.89;42.27;101785.38;5059386;28;45338;-66
2022/07/17 03:38:21;;;;;;;;;1.00;1.00;;;;;20.88;42.30;101786.38;5059035;28;46137;-64
2022/07/17 03:40:47;;;;;;;;;5.00;4.00;;;;;20.78;42.59;101782.69;5058909;28;45300;-62
2022/07/17 03:43:13;;;;;;;;;4.00;4.00;;;;;20.85;42.60;101796.59;5040628;28;45350;-62
2022/07/17 03:45:39;;;;;;;;;7.67;3.00;;;;;20.87;42.54;101792.78;5057462;28;45346;-63
2022/07/17 03:48:05;;;;;;;;;4.00;4.00;;;;;20.88;42.79;101802.59;5058153;28;47242;-63
2022/07/17 03:50:30;;;;;;;;;4.00;4.00;;;;;20.72;42.88;101785.03;5058845;28;45409;-62
2022/07/17 03:52:56;;;;;;;;;2.00;2.00;;;;;20.74;43.36;101802.84;5059030;28;45799;-64
2022/07/17 03:55:21;;;;;;;;;6.00;3.33;;;;;20.63;43.41;101807.38;5059648;28;45414;-63
2022/07/17 03:57:46;;;;;;;;;4.67;4.67;;;;;20.48;43.37;101794.09;5058126;28;46043;-64
2022/07/17 04:00:12;;;;;;;;;3.00;3.00;;;;;20.47;43.60;101797.78;5058337;28;45389;-63
2022/07/17 04:02:38;;;;;;;;;3.00;3.00;;;;;20.50;43.49;101802.94;5058662;28;45428;-63
2022/07/17 04:05:03;;;;;;;;;3.67;3.67;;;;;20.51;43.50;101801.97;5058776;28;45501;-63
2022/07/17 04:07:30;;;;;;;;;5.67;4.33;;;;;20.46;43.46;101787.09;5058254;28;46217;-63
2022/07/17 04:09:57;;;;;;;;;3.00;3.00;;;;;20.48;43.62;101794.09;5058409;28;45368;-63
2022/07/17 04:12:23;;;;;;;;;5.67;4.00;;;;;20.40;43.79;101780.28;5059098;28;45467;-66
2022/07/17 04:14:49;;;;;;;;;4.00;4.00;;;;;20.41;43.61;101787.41;5058783;28;45423;-63
2022/07/17 04:17:14;;;;;;;;;2.33;2.33;;;;;20.33;43.97;101782.63;5057801;28;45444;-63
2022/07/17 04:19:40;;;;;;;;;5.00;4.00;;;;;20.36;44.02;101789.63;5057214;28;45428;-64
2022/07/17 04:22:05;;;;;;;;;7.67;5.33;;;;;20.35;43.98;101792.44;5058219;28;45331;-63
2022/07/17 04:24:31;;;;;;;;;7.00;7.00;;;;;20.30;44.16;101800.91;5058331;28;45581;-62
2022/07/17 04:26:56;;;;;;;;;8.33;6.00;;;;;20.29;44.02;101810.84;5058051;28;45323;-62
2022/07/17 04:29:21;;;;;;;;;9.33;8.00;;;;;20.32;44.23;101823.28;5058340;28;45327;-63
2022/07/17 04:31:47;;;;;;;;;12.00;9.00;;;;;20.36;43.39;101826.59;5058084;28;45473;-62
2022/07/17 04:34:12;;;;;;;;;8.67;8.33;;;;;20.33;44.06;101833.09;5058111;28;45568;-62
2022/07/17 04:36:37;;;;;;;;;11.67;10.00;;;;;20.25;44.33;101824.72;5057851;28;45932;-64
2022/07/17 04:39:03;;;;;;;;;13.00;10.67;;;;;20.14;44.74;101828.25;5058068;28;45483;-63
2022/07/17 04:41:28;;;;;;;;;8.00;7.00;;;;;20.12;44.35;101830.19;5056658;28;45655;-63
2022/07/17 04:43:54;;;;;;;;;5.00;3.33;;;;;20.16;44.60;101833.53;5058791;28;45209;-63
2022/07/17 04:46:19;;;;;;;;;5.00;5.00;;;;;20.19;44.31;101836.00;5057601;28;46314;-63
2022/07/17 04:48:45;;;;;;;;;6.33;6.33;;;;;20.19;44.20;101844.97;5057609;28;45216;-63
2022/07/17 04:51:10;;;;;;;;;6.00;6.00;;;;;20.21;44.31;101856.50;5057909;28;45182;-64
2022/07/17 04:53:37;;;;;;;;;5.00;5.00;;;;;20.22;44.35;101851.97;5057815;28;45244;-63
2022/07/17 04:56:03;;;;;;;;;8.00;5.00;;;;;20.16;44.20;101841.63;5057376;28;45386;-63
2022/07/17 04:58:28;;;;;;;;;5.00;4.33;;;;;20.10;44.34;101839.41;5056218;28;45355;-63
2022/07/17 05:00:54;;;;;;;;;2.67;2.67;;;;;20.21;44.19;101863.75;5057340;28;45438;-62
2022/07/17 05:03:19;;;;;;;;;3.00;3.00;;;;;20.13;44.41;101841.88;5057848;28;45375;-61
2022/07/17 05:05:45;;;;;;;;;5.33;4.00;;;;;20.16;44.48;101847.03;5057496;28;45461;-63
2022/07/17 05:08:10;;;;;;;;;25.67;23.33;;;;;20.15;44.21;101837.19;5057572;28;45301;-63
2022/07/17 05:10:36;;;;;;;;;3.00;3.00;;;;;20.28;44.41;101859.59;5057455;28;45441;-64
2022/07/17 05:13:01;;;;;;;;;4.00;4.00;;;;;20.32;44.32;101853.00;5056296;28;45541;-64
2022/07/17 05:15:27;;;;;;;;;5.00;5.00;;;;;20.32;44.09;101859.25;5057610;28;45553;-64
2022/07/17 05:17:52;;;;;;;;;5.00;5.00;;;;;20.28;44.19;101856.88;5057823;28;45466;-63
2022/07/17 05:20:17;;;;;;;;;4.67;4.67;;;;;20.24;44.59;101858.13;5057950;28;45335;-65
2022/07/17 05:22:43;;;;;;;;;4.67;4.67;;;;;20.29;44.51;101864.00;5057541;28;45539;-63
2022/07/17 05:25:09;;;;;;;;;5.33;4.00;;;;;20.35;44.23;101862.69;5056838;28;45985;-64
2022/07/17 05:27:34;;;;;;;;;6.00;4.67;;;;;20.38;44.55;101863.31;5057122;28;45431;-63
2022/07/17 05:30:00;;;;;;;;;5.67;4.33;;;;;20.34;43.96;101861.84;5055904;28;45348;-66
2022/07/17 05:32:25;;;;;;;;;4.00;4.00;;;;;20.33;44.49;101862.81;5057564;28;45371;-65
2022/07/17 05:34:51;;;;;;;;;6.67;3.33;;;;;20.35;44.30;101865.41;5056855;28;45355;-66
2022/07/17 05:37:16;;;;;;;;;3.00;3.00;;;;;20.22;44.14;101842.03;5056988;28;45223;-64
2022/07/17 05:39:41;;;;;;;;;3.00;3.00;;;;;20.32;44.10;101864.66;5057038;28;45255;-63
2022/07/17 05:42:07;;;;;;;;;2.33;2.33;;;;;20.31;43.83;101860.25;5057310;28;45664;-63
2022/07/17 05:44:32;;;;;;;;;5.00;5.00;;;;;20.29;44.41;101858.63;5056995;28;46223;-63
2022/07/17 05:46:58;;;;;;;;;3.00;3.00;;;;;20.39;44.09;101864.19;5056609;28;45737;-63
2022/07/17 05:49:23;;;;;;;;;4.00;3.00;;;;;20.38;44.07;101866.03;5057306;28;45277;-64
2022/07/17 05:51:48;;;;;;;;;4.00;4.00;;;;;20.40;44.14;101866.75;5057215;28;45667;-63
2022/07/17 05:54:14;;;;;;;;;4.00;3.00;;;;;20.42;44.12;101869.38;5056644;28;46762;-62
2022/07/17 05:56:39;;;;;;;;;4.33;3.33;;;;;20.41;44.35;101867.63;5056396;28;45407;-63
2022/07/17 05:59:05;;;;;;;;;3.33;3.33;;;;;20.39;44.51;101866.88;5056589;28;45381;-63
2022/07/17 06:01:30;;;;;;;;;3.00;3.00;;;;;20.29;44.63;101869.41;5055379;28;45477;-63
2022/07/17 06:03:56;;;;;;;;;2.33;2.33;;;;;20.14;44.54;101855.25;5056894;28;45410;-63
2022/07/17 06:06:21;;;;;;;;;4.00;4.00;;;;;20.19;44.82;101858.47;5055439;28;45441;-65
2022/07/17 06:08:47;;;;;;;;;3.00;3.00;;;;;20.25;44.81;101876.03;5056460;28;45443;-64
2022/07/17 06:11:12;;;;;;;;;4.00;4.00;;;;;20.17;44.80;101865.81;5056828;28;45592;-63
2022/07/17 06:13:38;;;;;;;;;3.33;3.33;;;;;20.26;44.25;101872.34;5056061;28;45901;-64
2022/07/17 06:16:04;;;;;;;;;2.67;2.67;;;;;20.33;44.89;101863.69;5056372;28;45448;-63
2022/07/17 06:18:29;;;;;;;;;3.67;3.67;;;;;20.38;44.45;101868.72;5056680;28;45380;-64
2022/07/17 06:20:54;;;;;;;;;4.00;4.00;;;;;20.28;44.47;101863.16;5056437;28;45287;-62
2022/07/17 06:23:20;;;;;;;;;4.00;4.00;;;;;20.29;44.77;101864.00;5056260;28;45285;-62
2022/07/17 06:25:45;;;;;;;;;4.67;4.67;;;;;20.31;44.55;101862.06;5056309;28;45340;-63
2022/07/17 06:28:11;;;;;;;;;3.00;3.00;;;;;20.42;44.77;101874.78;5056180;28;45373;-64
2022/07/17 06:30:37;;;;;;;;;5.00;3.33;;;;;20.43;44.13;101855.72;5057133;28;45620;-64
2022/07/17 06:33:02;;;;;;;;;5.67;3.33;;;;;20.50;44.57;101857.00;5056955;28;46180;-64
2022/07/17 06:35:30;;;;;;;;;4.00;4.00;;;;;20.64;44.12;101864.03;5057419;28;45220;-64
2022/07/17 06:37:56;;;;;;;;;3.67;3.67;;;;;20.71;44.06;101856.31;5056138;28;45849;-63
2022/07/17 06:40:22;;;;;;;;;4.00;3.00;;;;;20.79;43.62;101861.94;5056620;28;45415;-63
2022/07/17 06:42:47;;;;;;;;;4.33;4.00;;;;;20.79;43.80;101845.72;5056380;28;46532;-64
2022/07/17 06:45:13;;;;;;;;;4.00;4.00;;;;;20.94;43.74;101862.56;5056203;28;45465;-65
2022/07/17 06:47:38;;;;;;;;;3.00;3.00;;;;;20.99;43.48;101857.69;5056317;28;45399;-65
2022/07/17 06:50:04;;;;;;;;;3.00;3.00;;;;;20.88;43.26;101836.91;5055203;28;45733;-63
2022/07/17 06:52:30;;;;;;;;;4.33;4.00;;;;;21.04;43.22;101852.75;5055390;28;48145;-64
2022/07/17 06:54:55;;;;;;;;;4.00;4.00;;;;;21.05;43.14;101852.63;5037952;28;45216;-64
2022/07/17 06:57:21;;;;;;;;;3.00;3.00;;;;;21.11;43.28;101852.16;5056538;28;45797;-64
2022/07/17 06:59:46;;;;;;;;;4.00;4.00;;;;;21.16;42.89;101852.63;5056668;28;45335;-65
2022/07/17 07:02:12;;;;;;;;;0.00;0.00;;;;;21.21;42.70;101855.81;5056250;28;46274;-64
2022/07/17 07:04:37;;;;;;;;;3.00;3.00;;;;;21.28;42.86;101847.25;5055099;28;45311;-64
2022/07/17 07:07:03;;;;;;;;;3.33;3.00;;;;;21.33;42.91;101850.41;5056178;28;45283;-63
2022/07/17 07:09:28;;;;;;;;;5.00;3.33;;;;;21.37;42.38;101841.94;5056833;28;45640;-64
2022/07/17 07:11:53;;;;;;;;;4.67;4.00;;;;;21.46;42.31;101853.84;5054550;28;45198;-63
2022/07/17 07:14:19;;;;;;;;;3.00;3.00;;;;;21.50;41.57;101847.22;5056153;28;45472;-64
2022/07/17 07:16:44;;;;;;;;;3.00;3.00;;;;;21.62;42.17;101862.44;5056013;28;45897;-63
2022/07/17 07:19:10;;;;;;;;;3.33;2.00;;;;;21.68;41.83;101855.66;5056327;28;45433;-63
2022/07/17 07:21:35;;;;;;;;;6.33;3.67;;;;;21.64;41.63;101840.66;5054225;28;46911;-64
2022/07/17 07:24:01;;;;;;;;;4.00;4.00;;;;;21.86;41.29;101864.09;5056182;28;45394;-63
2022/07/17 07:26:27;;;;;;;;;3.67;3.67;;;;;21.94;40.69;101862.47;5056029;28;45432;-64
2022/07/17 07:28:53;;;;;;;;;5.00;4.00;;;;;21.96;40.83;101859.63;5056082;28;45498;-64
2022/07/17 07:31:18;;;;;;;;;3.00;3.00;;;;;22.05;40.59;101857.03;5054549;28;47136;-64
2022/07/17 07:33:44;;;;;;;;;5.00;4.00;;;;;22.14;40.24;101850.00;5056262;28;45810;-64
2022/07/17 07:36:10;;;;;;;;;3.00;3.00;;;;;22.26;40.18;101851.63;5059749;28;45295;-63
2022/07/17 07:38:36;;;;;;;;;4.00;4.00;;;;;22.35;39.47;101858.97;5059634;28;45353;-63
2022/07/17 07:41:02;;;;;;;;;5.00;3.00;;;;;22.46;39.72;101851.78;5057622;28;47552;-63
2022/07/17 07:43:27;;;;;;;;;5.00;3.33;;;;;22.54;39.93;101857.41;5058651;28;45293;-63
2022/07/17 07:45:53;;;;;;;;;3.00;3.00;;;;;22.64;39.22;101851.03;5057386;28;45306;-64
2022/07/17 07:48:18;;;;;;;;;5.33;3.00;;;;;22.73;39.66;101852.09;5058681;28;45198;-64
2022/07/17 07:50:44;;;;;;;;;4.33;3.33;;;;;22.81;38.87;101846.84;5058616;28;45425;-64
2022/07/17 07:53:10;;;;;;;;;4.00;4.00;;;;;22.88;38.66;101850.75;5057432;28;45497;-65
2022/07/17 07:55:35;;;;;;;;;3.00;3.00;;;;;23.00;38.76;101846.13;5057626;28;45505;-63
2022/07/17 07:58:12;;;;;;;;;6.00;4.67;;;;;23.08;38.57;101848.16;5057779;28;45566;-63
2022/07/17 08:00:39;;;;;;;;;4.00;3.00;;;;;23.10;38.14;101852.44;5057857;28;45549;-64
2022/07/17 08:03:05;;;;;;;;;3.33;3.33;;;;;23.16;38.59;101846.47;5058613;28;45346;-63
2022/07/17 08:05:32;;;;;;;;;5.00;5.00;;;;;23.27;39.08;101850.06;5058949;28;46028;-62
2022/07/17 08:07:57;;;;;;;;;4.00;4.00;;;;;23.27;37.52;101842.78;5057398;28;45481;-63
2022/07/17 08:10:23;;;;;;;;;4.00;4.00;;;;;23.35;37.46;101831.25;5057969;28;46322;-63
2022/07/17 08:12:48;;;;;;;;;3.67;3.00;;;;;23.49;37.67;101847.16;5057857;28;45184;-64
2022/07/17 08:15:20;;;;;;;;;3.33;3.33;;;;;23.49;37.39;101828.13;5058344;28;45295;-64
2022/07/17 08:17:47;;;;;;;;;4.33;4.00;;;;;23.65;37.35;101852.06;5057181;28;45560;-63
2022/07/17 08:20:13;;;;;;;;;4.67;3.00;;;;;23.67;37.57;101844.63;5058115;28;45473;-63
2022/07/17 08:22:39;;;;;;;;;2.50;2.50;;;;;23.73;38.21;101833.22;5057382;28;45440;-65
2022/07/17 08:25:05;;;;;;;;;5.75;4.50;;;;;23.92;36.76;101845.94;5059069;28;45453;-65
2022/07/17 08:27:42;;;;;;;;;2.00;2.00;;;;;24.18;36.45;101854.38;5058689;28;45271;-64
2022/07/17 08:30:10;;;;;;;;;2.25;2.25;;;;;24.47;36.58;101833.47;5056927;28;45433;-63
2022/07/17 08:32:37;;;;;;;;;3.00;3.00;;;;;24.94;35.05;101849.81;5058320;28;45207;-64
2022/07/17 08:35:03;;;;;;;;;3.00;3.00;;;;;25.26;33.91;101841.25;5058064;28;45256;-64
2022/07/17 08:37:29;;;;;;;;;3.50;3.00;;;;;25.61;33.14;101839.63;5056594;28;45583;-64
2022/07/17 08:39:55;;;;;;;;;3.75;3.75;;;;;26.07;34.61;101841.31;5057742;27;46038;-64
2022/07/17 08:42:20;;;;;;;;;1.25;1.25;;;;;26.49;34.14;101848.84;5057604;28;45518;-64
2022/07/17 08:44:46;;;;;;;;;0.75;0.75;;;;;26.78;32.40;101848.50;5058007;28;45780;-64
2022/07/17 08:47:13;;;;;;;;;4.00;2.50;;;;;27.12;31.86;101840.38;5058337;28;45439;-66
2022/07/17 08:49:45;;;;;;;;;4.00;4.00;;;;;27.49;32.48;101837.28;5057948;28;46510;-64
2022/07/17 08:52:11;;;;;;;;;2.80;2.80;;;;;27.84;31.82;101827.97;5057973;28;45435;-66
2022/07/17 08:54:37;;;;;;;;;5.00;3.60;;;;;28.13;29.62;101822.88;5058442;28;45385;-65
2022/07/17 08:57:03;;;;;;;;;3.00;3.00;;;;;28.38;29.29;101825.63;5058090;28;45333;-63
2022/07/17 08:59:29;;;;;;;;;5.00;3.20;;;;;28.58;29.00;101818.75;5056478;28;46994;-64
2022/07/17 09:01:55;;;;;;;;;2.40;2.40;;;;;28.89;29.28;101826.22;5057496;28;47337;-64
2022/07/17 09:04:20;;;;;;;;;2.00;2.00;;;;;29.13;28.18;101837.09;5057529;28;45340;-64
2022/07/17 09:06:45;;;;;;;;;3.00;3.00;;;;;29.45;28.71;101840.75;5057748;28;45224;-63
2022/07/17 09:09:13;;;;;;;;;3.25;3.25;;;;;29.76;27.99;101833.38;5057427;28;46969;-65
2022/07/17 09:11:47;;;;;;;;;4.60;3.00;;;;;29.99;27.59;101827.91;5056430;28;45296;-64
2022/07/17 09:14:13;;;;;;;;;1.40;1.40;;;;;30.29;26.95;101823.38;5057689;28;45380;-63
2022/07/17 09:16:55;;;;;;;;;4.40;3.00;;;;;30.58;27.93;101832.69;5058272;28;45608;-64
2022/07/17 09:19:36;;;;;;;;;2.00;2.00;;;;;30.92;27.15;101835.78;5057228;28;45373;-64
2022/07/17 09:22:12;;;;;;;;;2.60;2.60;;;;;31.16;26.40;101831.06;5057647;28;45456;-63
2022/07/17 09:24:45;;;;;;;;;2.20;2.20;;;;;31.28;24.82;101829.56;5058049;28;45549;-65
2022/07/17 09:27:12;;;;;;;;;4.00;2.20;;;;;31.51;25.59;101835.75;5057460;28;45535;-64
2022/07/17 09:29:54;;;;;;;;;2.40;2.00;;;;;31.83;25.06;101828.09;5057393;28;45656;-63
2022/07/17 09:32:23;;;;;;;;;3.20;3.00;;;;;31.94;23.58;101825.69;5056983;28;45437;-65
2022/07/17 09:34:49;;;;;;;;;6.20;4.00;;;;;32.04;23.94;101830.84;5055668;28;45426;-64
2022/07/17 09:37:15;;;;;;;;;1.80;1.80;;;;;32.37;24.07;101835.81;5057197;28;45365;-64
2022/07/17 09:39:41;;;;;;;;;2.00;2.00;;;;;32.54;24.17;101837.22;5057178;28;45445;-63
2022/07/17 09:42:07;;;;;;;;;2.00;2.00;;;;;32.70;22.69;101831.41;5056868;28;45282;-65
2022/07/17 09:44:32;;;;;;;;;3.00;1.25;;;;;32.78;24.00;101835.91;5057166;28;45354;-64
2022/07/17 09:46:59;;;;;;;;;4.00;2.00;;;;;33.07;22.88;101821.03;5057232;28;45465;-65
2022/07/17 09:49:26;;;;;;;;;2.00;2.00;;;;;33.11;21.12;101819.59;5055422;28;48037;-64
2022/07/17 09:51:52;;;;;;;;;3.80;2.60;;;;;33.26;22.00;101813.94;5055274;28;45818;-63
2022/07/17 09:54:21;;;;;;;;;1.80;1.80;;;;;33.52;22.51;101824.22;5056973;28;45325;-64
2022/07/17 09:56:50;;;;;;;;;4.00;2.40;;;;;33.50;22.23;101812.56;5056042;28;45540;-64
2022/07/17 09:59:17;;;;;;;;;3.40;3.40;;;;;33.52;22.24;101824.22;5056576;28;45472;-64
2022/07/17 10:01:44;;;;;;;;;4.00;2.20;;;;;33.70;22.20;101828.09;5056633;28;45849;-64
2022/07/17 10:04:11;;;;;;;;;3.00;3.00;;;;;33.85;20.95;101824.28;5056996;28;45422;-64
2022/07/17 10:06:37;;;;;;;;;2.20;2.20;;;;;33.93;21.29;101822.22;5057228;28;45335;-63
2022/07/17 10:09:04;;;;;;;;;2.20;2.20;;;;;34.01;21.46;101819.28;5056574;28;46378;-64
2022/07/17 10:11:33;;;;;;;;;1.60;1.60;;;;;34.09;19.32;101828.41;5055172;28;45858;-64
2022/07/17 10:14:10;;;;;;;;;2.80;2.80;;;;;33.89;20.89;101809.91;5056756;28;45747;-67
2022/07/17 10:16:38;;;;;;;;;2.60;2.60;;;;;34.09;20.58;101820.13;5039670;28;45523;-64
2022/07/17 10:19:18;;;;;;;;;3.40;2.00;;;;;34.08;19.90;101818.41;5056500;28;45424;-63
2022/07/17 10:22:04;;;;;;;;;3.00;3.00;;;;;34.14;19.89;101823.97;5056925;28;45415;-66
2022/07/17 10:24:30;;;;;;;;;1.20;1.20;;;;;33.93;19.51;101825.00;5056191;28;45409;-64
2022/07/17 10:26:56;;;;;;;;;1.60;1.60;;;;;33.80;20.01;101824.94;5056783;28;45292;-65
2022/07/17 10:29:29;;;;;;;;;4.20;3.20;;;;;33.76;19.37;101834.69;5056197;28;46535;-64
2022/07/17 10:31:55;;;;;;;;;2.20;2.20;;;;;33.69;19.43;101831.91;5056509;28;45438;-65
2022/07/17 10:34:43;;;;;;;;;3.75;1.75;;;;;33.38;18.83;101837.97;5056755;28;45417;-64
2022/07/17 10:37:31;;;;;;;;;2.00;2.00;;;;;33.08;20.27;101829.13;5056733;28;45338;-63
2022/07/17 10:40:10;;;;;;;;;2.00;2.00;;;;;32.87;19.85;101829.22;5056355;28;47078;-63
2022/07/17 10:42:57;;;;;;;;;5.60;3.20;;;;;32.50;20.49;101827.66;5054804;28;45276;-65
2022/07/17 10:45:34;;;;;;;;;2.00;2.00;;;;;32.35;21.18;101841.53;5056592;28;45349;-64
2022/07/17 10:48:03;;;;;;;;;2.80;2.80;;;;;32.01;20.32;101844.13;5055436;28;45204;-63
2022/07/17 10:50:38;;;;;;;;;3.60;2.40;;;;;31.79;21.33;101838.66;5054700;28;45450;-64
2022/07/17 10:53:05;;;;;;;;;2.00;2.00;;;;;31.57;21.22;101840.47;5055847;28;45580;-64
2022/07/17 10:55:31;;;;;;;;;2.60;2.60;;;;;31.27;21.38;101836.94;5056008;28;45422;-63
2022/07/17 10:57:57;;;;;;;;;3.00;3.00;;;;;31.16;21.71;101833.81;5054852;28;45388;-63
2022/07/17 11:00:24;;;;;;;;;1.75;1.75;;;;;30.99;22.22;101835.88;5056187;28;46012;-63
2022/07/17 11:02:49;;;;;;;;;2.20;2.20;;;;;30.89;22.33;101840.81;5055605;28;45308;-64
2022/07/17 11:05:16;;;;;;;;;2.00;2.00;;;;;30.82;22.90;101832.47;5056458;28;45261;-64
2022/07/17 11:08:09;;;;;;;;;2.80;2.80;;;;;30.62;22.49;101828.56;5056592;28;45338;-63
2022/07/17 11:10:36;;;;;;;;;2.60;2.60;;;;;30.50;23.01;101833.66;5056997;28;45306;-63
2022/07/17 11:13:13;;;;;;;;;3.40;3.00;;;;;30.40;21.93;101824.81;5059501;28;45369;-64
2022/07/17 11:15:44;;;;;;;;;2.00;2.00;;;;;30.26;21.99;101821.00;5059684;28;45428;-65
2022/07/17 11:18:12;;;;;;;;;2.20;2.20;;;;;30.09;22.79;101792.03;5059878;28;45540;-63
2022/07/17 11:20:52;;;;;;;;;2.00;2.00;;;;;30.20;23.34;101819.84;5057985;28;46217;-64
2022/07/17 11:23:18;;;;;;;;;3.00;3.00;;;;;30.20;21.78;101824.47;5059455;28;45345;-64